sensor_id;sensor_type;location;lat;lon;timestamp;pressure;altitude;pressure_sealevel;temperature
49154;BMP280;49455;52.252;9.124;2023-07-13T00:03:05;99439.00;;;17.68
49154;BMP280;49455;52.252;9.124;2023-07-13T00:08:06;99438.44;;;17.64
49154;BMP280;49455;52.252;9.124;2023-07-13T00:13:07;99448.81;;;17.60
49154;BMP280;49455;52.252;9.124;2023-07-13T00:18:08;99446.56;;;17.49
49154;BMP280;49455;52.252;9.124;2023-07-13T00:23:08;99443.53;;;17.47
49154;BMP280;49455;52.252;9.124;2023-07-13T00:28:08;99462.28;;;17.39
49154;BMP280;49455;52.252;9.124;2023-07-13T00:33:09;99466.53;;;17.40
49154;BMP280;49455;52.252;9.124;2023-07-13T00:38:10;99450.78;;;17.26
49154;BMP280;49455;52.252;9.124;2023-07-13T00:43:20;99467.84;;;17.21
49154;BMP280;49455;52.252;9.124;2023-07-13T00:48:25;99461.25;;;17.18
49154;BMP280;49455;52.252;9.124;2023-07-13T00:53:27;99458.88;;;17.11
49154;BMP280;49455;52.252;9.124;2023-07-13T00:58:29;99452.94;;;17.13
49154;BMP280;49455;52.252;9.124;2023-07-13T01:03:31;99455.41;;;17.01
49154;BMP280;49455;52.252;9.124;2023-07-13T01:08:32;99452.53;;;16.96
49154;BMP280;49455;52.252;9.124;2023-07-13T01:13:34;99463.47;;;16.96
49154;BMP280;49455;52.252;9.124;2023-07-13T01:18:35;99449.16;;;16.92
49154;BMP280;49455;52.252;9.124;2023-07-13T01:23:35;99457.38;;;16.92
49154;BMP280;49455;52.252;9.124;2023-07-13T01:28:36;99460.88;;;16.92
49154;BMP280;49455;52.252;9.124;2023-07-13T01:33:37;99445.97;;;16.93
49154;BMP280;49455;52.252;9.124;2023-07-13T01:38:38;99454.69;;;16.73
49154;BMP280;49455;52.252;9.124;2023-07-13T01:43:39;99451.94;;;16.73
49154;BMP280;49455;52.252;9.124;2023-07-13T01:48:41;99448.00;;;16.65
49154;BMP280;49455;52.252;9.124;2023-07-13T01:53:41;99450.09;;;16.61
49154;BMP280;49455;52.252;9.124;2023-07-13T01:58:41;99458.81;;;16.60
49154;BMP280;49455;52.252;9.124;2023-07-13T02:03:42;99460.16;;;16.55
49154;BMP280;49455;52.252;9.124;2023-07-13T02:08:42;99459.66;;;16.66
49154;BMP280;49455;52.252;9.124;2023-07-13T02:13:43;99455.63;;;16.70
49154;BMP280;49455;52.252;9.124;2023-07-13T02:18:43;99465.00;;;16.78
49154;BMP280;49455;52.252;9.124;2023-07-13T02:23:43;99463.03;;;16.79
49154;BMP280;49455;52.252;9.124;2023-07-13T02:28:44;99464.53;;;16.89
49154;BMP280;49455;52.252;9.124;2023-07-13T02:33:46;99461.19;;;16.94
49154;BMP280;49455;52.252;9.124;2023-07-13T02:38:46;99468.16;;;17.04
49154;BMP280;49455;52.252;9.124;2023-07-13T02:43:46;99464.22;;;17.05
49154;BMP280;49455;52.252;9.124;2023-07-13T02:48:47;99455.69;;;17.03
49154;BMP280;49455;52.252;9.124;2023-07-13T02:53:47;99463.00;;;17.06
49154;BMP280;49455;52.252;9.124;2023-07-13T02:58:48;99469.38;;;17.03
49154;BMP280;49455;52.252;9.124;2023-07-13T03:03:49;99472.91;;;16.86
49154;BMP280;49455;52.252;9.124;2023-07-13T03:08:52;99467.28;;;16.89
49154;BMP280;49455;52.252;9.124;2023-07-13T03:13:53;99480.50;;;16.91
49154;BMP280;49455;52.252;9.124;2023-07-13T03:18:54;99478.06;;;16.83
49154;BMP280;49455;52.252;9.124;2023-07-13T03:23:56;99482.19;;;16.88
49154;BMP280;49455;52.252;9.124;2023-07-13T03:28:56;99481.13;;;16.86
49154;BMP280;49455;52.252;9.124;2023-07-13T03:33:58;99483.69;;;16.80
49154;BMP280;49455;52.252;9.124;2023-07-13T03:39:00;99483.53;;;16.74
49154;BMP280;49455;52.252;9.124;2023-07-13T03:44:11;99487.66;;;16.79
49154;BMP280;49455;52.252;9.124;2023-07-13T03:49:11;99483.41;;;16.69
49154;BMP280;49455;52.252;9.124;2023-07-13T03:54:12;99478.25;;;16.62
49154;BMP280;49455;52.252;9.124;2023-07-13T03:59:13;99490.22;;;16.55
49154;BMP280;49455;52.252;9.124;2023-07-13T04:04:13;99487.50;;;16.64
49154;BMP280;49455;52.252;9.124;2023-07-13T04:09:14;99486.00;;;16.72
49154;BMP280;49455;52.252;9.124;2023-07-13T04:14:14;99501.91;;;16.83
49154;BMP280;49455;52.252;9.124;2023-07-13T04:19:15;99501.16;;;16.92
49154;BMP280;49455;52.252;9.124;2023-07-13T04:24:15;99507.22;;;17.05
49154;BMP280;49455;52.252;9.124;2023-07-13T04:29:16;99513.91;;;17.13
49154;BMP280;49455;52.252;9.124;2023-07-13T04:34:16;99513.91;;;17.04
49154;BMP280;49455;52.252;9.124;2023-07-13T04:39:17;99522.25;;;17.19
49154;BMP280;49455;52.252;9.124;2023-07-13T04:44:17;99516.59;;;17.31
49154;BMP280;49455;52.252;9.124;2023-07-13T04:49:17;99513.72;;;17.35
49154;BMP280;49455;52.252;9.124;2023-07-13T04:54:18;99527.22;;;17.48
49154;BMP280;49455;52.252;9.124;2023-07-13T04:59:18;99520.06;;;17.50
49154;BMP280;49455;52.252;9.124;2023-07-13T05:04:19;99518.06;;;17.51
49154;BMP280;49455;52.252;9.124;2023-07-13T05:09:19;99515.34;;;17.51
49154;BMP280;49455;52.252;9.124;2023-07-13T05:14:20;99510.63;;;17.51
49154;BMP280;49455;52.252;9.124;2023-07-13T05:19:20;99512.00;;;17.56
49154;BMP280;49455;52.252;9.124;2023-07-13T05:24:21;99520.81;;;17.51
49154;BMP280;49455;52.252;9.124;2023-07-13T05:29:22;99533.00;;;17.50
49154;BMP280;49455;52.252;9.124;2023-07-13T05:34:22;99536.50;;;17.50
49154;BMP280;49455;52.252;9.124;2023-07-13T05:39:23;99545.00;;;17.52
49154;BMP280;49455;52.252;9.124;2023-07-13T05:44:24;99551.41;;;17.40
49154;BMP280;49455;52.252;9.124;2023-07-13T05:49:24;99549.59;;;17.46
49154;BMP280;49455;52.252;9.124;2023-07-13T05:54:24;99549.47;;;17.41
49154;BMP280;49455;52.252;9.124;2023-07-13T05:59:25;99553.25;;;17.43
49154;BMP280;49455;52.252;9.124;2023-07-13T06:04:25;99548.75;;;17.64
49154;BMP280;49455;52.252;9.124;2023-07-13T06:09:25;99552.06;;;17.77
49154;BMP280;49455;52.252;9.124;2023-07-13T06:14:26;99553.34;;;17.67
49154;BMP280;49455;52.252;9.124;2023-07-13T06:19:26;99557.25;;;17.75
49154;BMP280;49455;52.252;9.124;2023-07-13T06:24:26;99557.72;;;18.07
49154;BMP280;49455;52.252;9.124;2023-07-13T06:29:27;99558.91;;;18.15
49154;BMP280;49455;52.252;9.124;2023-07-13T06:34:27;99573.19;;;18.43
49154;BMP280;49455;52.252;9.124;2023-07-13T06:39:28;99568.28;;;18.23
49154;BMP280;49455;52.252;9.124;2023-07-13T06:44:28;99569.38;;;18.17
49154;BMP280;49455;52.252;9.124;2023-07-13T06:49:28;99576.47;;;18.09
49154;BMP280;49455;52.252;9.124;2023-07-13T06:54:29;99580.00;;;18.00
49154;BMP280;49455;52.252;9.124;2023-07-13T06:59:29;99581.22;;;17.99
49154;BMP280;49455;52.252;9.124;2023-07-13T07:04:30;99576.78;;;18.01
49154;BMP280;49455;52.252;9.124;2023-07-13T07:09:30;99591.41;;;18.31
49154;BMP280;49455;52.252;9.124;2023-07-13T07:14:31;99586.81;;;18.38
49154;BMP280;49455;52.252;9.124;2023-07-13T07:19:31;99597.88;;;18.91
49154;BMP280;49455;52.252;9.124;2023-07-13T07:24:32;99591.56;;;19.44
49154;BMP280;49455;52.252;9.124;2023-07-13T07:29:32;99597.63;;;19.34
49154;BMP280;49455;52.252;9.124;2023-07-13T07:34:33;99608.50;;;19.13
49154;BMP280;49455;52.252;9.124;2023-07-13T07:39:33;99602.63;;;19.05
49154;BMP280;49455;52.252;9.124;2023-07-13T07:44:34;99594.09;;;19.33
49154;BMP280;49455;52.252;9.124;2023-07-13T07:49:35;99588.72;;;19.24
49154;BMP280;49455;52.252;9.124;2023-07-13T07:54:36;99593.25;;;19.71
49154;BMP280;49455;52.252;9.124;2023-07-13T07:59:37;99600.34;;;19.78
49154;BMP280;49455;52.252;9.124;2023-07-13T08:04:37;99592.06;;;19.93
49154;BMP280;49455;52.252;9.124;2023-07-13T08:09:38;99608.16;;;20.00
49154;BMP280;49455;52.252;9.124;2023-07-13T08:14:38;99602.41;;;19.98
49154;BMP280;49455;52.252;9.124;2023-07-13T08:19:38;99604.63;;;20.35
49154;BMP280;49455;52.252;9.124;2023-07-13T08:24:39;99604.41;;;20.18
49154;BMP280;49455;52.252;9.124;2023-07-13T08:29:39;99610.84;;;20.15
49154;BMP280;49455;52.252;9.124;2023-07-13T08:34:40;99622.03;;;20.67
49154;BMP280;49455;52.252;9.124;2023-07-13T08:39:40;99621.59;;;20.74
49154;BMP280;49455;52.252;9.124;2023-07-13T08:45:21;99616.94;;;20.80
49154;BMP280;49455;52.252;9.124;2023-07-13T08:50:28;99621.50;;;21.09
49154;BMP280;49455;52.252;9.124;2023-07-13T08:55:32;99615.53;;;21.74
49154;BMP280;49455;52.252;9.124;2023-07-13T09:00:48;99617.69;;;21.06
49154;BMP280;49455;52.252;9.124;2023-07-13T09:05:56;99618.94;;;21.31
49154;BMP280;49455;52.252;9.124;2023-07-13T09:16:24;99622.00;;;21.33
49154;BMP280;49455;52.252;9.124;2023-07-13T09:21:30;99621.00;;;21.11
49154;BMP280;49455;52.252;9.124;2023-07-13T09:26:32;99630.94;;;21.92
49154;BMP280;49455;52.252;9.124;2023-07-13T09:31:37;99632.72;;;21.95
49154;BMP280;49455;52.252;9.124;2023-07-13T09:36:39;99627.44;;;21.91
49154;BMP280;49455;52.252;9.124;2023-07-13T09:46:53;99627.56;;;21.71
49154;BMP280;49455;52.252;9.124;2023-07-13T09:51:58;99623.47;;;22.03
49154;BMP280;49455;52.252;9.124;2023-07-13T09:57:00;99632.56;;;22.75
49154;BMP280;49455;52.252;9.124;2023-07-13T10:02:01;99626.16;;;22.35
49154;BMP280;49455;52.252;9.124;2023-07-13T10:07:05;99642.13;;;22.79
49154;BMP280;49455;52.252;9.124;2023-07-13T10:12:14;99628.72;;;22.55
49154;BMP280;49455;52.252;9.124;2023-07-13T10:17:18;99627.53;;;22.68
49154;BMP280;49455;52.252;9.124;2023-07-13T10:22:33;99633.78;;;22.57
49154;BMP280;49455;52.252;9.124;2023-07-13T10:27:36;99632.59;;;22.21
49154;BMP280;49455;52.252;9.124;2023-07-13T10:32:37;99642.94;;;23.08
49154;BMP280;49455;52.252;9.124;2023-07-13T10:42:50;99645.91;;;22.22
49154;BMP280;49455;52.252;9.124;2023-07-13T10:47:52;99636.75;;;22.53
49154;BMP280;49455;52.252;9.124;2023-07-13T10:52:55;99646.63;;;22.82
49154;BMP280;49455;52.252;9.124;2023-07-13T10:58:00;99644.28;;;24.27
49154;BMP280;49455;52.252;9.124;2023-07-13T11:03:02;99643.97;;;23.55
49154;BMP280;49455;52.252;9.124;2023-07-13T11:08:23;99642.94;;;23.08
49154;BMP280;49455;52.252;9.124;2023-07-13T11:13:55;99644.66;;;22.94
49154;BMP280;49455;52.252;9.124;2023-07-13T11:24:15;99649.34;;;22.71
49154;BMP280;49455;52.252;9.124;2023-07-13T11:34:36;99642.69;;;23.67
49154;BMP280;49455;52.252;9.124;2023-07-13T11:39:42;99636.16;;;23.03
49154;BMP280;49455;52.252;9.124;2023-07-13T11:44:48;99649.81;;;24.79
49154;BMP280;49455;52.252;9.124;2023-07-13T11:49:53;99652.81;;;24.87
49154;BMP280;49455;52.252;9.124;2023-07-13T11:54:55;99637.78;;;24.13
49154;BMP280;49455;52.252;9.124;2023-07-13T11:59:57;99640.44;;;23.60
49154;BMP280;49455;52.252;9.124;2023-07-13T12:05:00;99629.78;;;24.04
49154;BMP280;49455;52.252;9.124;2023-07-13T12:10:21;99649.25;;;23.31
49154;BMP280;49455;52.252;9.124;2023-07-13T12:15:23;99650.97;;;23.00
49154;BMP280;49455;52.252;9.124;2023-07-13T12:20:27;99651.59;;;22.07
49154;BMP280;49455;52.252;9.124;2023-07-13T12:25:29;99642.94;;;21.51
49154;BMP280;49455;52.252;9.124;2023-07-13T12:30:31;99653.31;;;21.62
49154;BMP280;49455;52.252;9.124;2023-07-13T12:35:40;99644.56;;;22.12
49154;BMP280;49455;52.252;9.124;2023-07-13T12:40:42;99648.16;;;22.18
49154;BMP280;49455;52.252;9.124;2023-07-13T12:46:24;99654.59;;;21.72
49154;BMP280;49455;52.252;9.124;2023-07-13T12:51:27;99655.13;;;21.71
49154;BMP280;49455;52.252;9.124;2023-07-13T12:56:28;99654.97;;;21.85
49154;BMP280;49455;52.252;9.124;2023-07-13T13:01:32;99662.56;;;22.45
49154;BMP280;49455;52.252;9.124;2023-07-13T13:06:34;99662.69;;;24.30
49154;BMP280;49455;52.252;9.124;2023-07-13T13:11:35;99659.28;;;23.90
49154;BMP280;49455;52.252;9.124;2023-07-13T13:16:43;99662.56;;;23.27
49154;BMP280;49455;52.252;9.124;2023-07-13T13:21:46;99692.50;;;22.57
49154;BMP280;49455;52.252;9.124;2023-07-13T13:26:47;99694.66;;;21.10
49154;BMP280;49455;52.252;9.124;2023-07-13T13:31:49;99719.84;;;22.55
49154;BMP280;49455;52.252;9.124;2023-07-13T13:36:49;99718.72;;;21.93
49154;BMP280;49455;52.252;9.124;2023-07-13T13:41:51;99737.59;;;20.81
49154;BMP280;49455;52.252;9.124;2023-07-13T13:46:53;99756.94;;;20.87
49154;BMP280;49455;52.252;9.124;2023-07-13T13:51:55;99776.78;;;20.06
49154;BMP280;49455;52.252;9.124;2023-07-13T13:56:56;99793.81;;;19.42
49154;BMP280;49455;52.252;9.124;2023-07-13T14:01:56;99798.69;;;18.56
49154;BMP280;49455;52.252;9.124;2023-07-13T14:06:57;99822.25;;;18.12
49154;BMP280;49455;52.252;9.124;2023-07-13T14:11:57;99809.47;;;17.90
49154;BMP280;49455;52.252;9.124;2023-07-13T14:16:57;99808.25;;;17.45
49154;BMP280;49455;52.252;9.124;2023-07-13T14:21:58;99818.59;;;17.60
49154;BMP280;49455;52.252;9.124;2023-07-13T14:26:58;99817.13;;;17.18
49154;BMP280;49455;52.252;9.124;2023-07-13T14:31:58;99812.59;;;17.33
49154;BMP280;49455;52.252;9.124;2023-07-13T14:36:59;99806.78;;;17.13
49154;BMP280;49455;52.252;9.124;2023-07-13T14:41:59;99804.63;;;16.99
49154;BMP280;49455;52.252;9.124;2023-07-13T14:47:02;99825.97;;;17.22
49154;BMP280;49455;52.252;9.124;2023-07-13T14:52:18;99806.88;;;17.50
49154;BMP280;49455;52.252;9.124;2023-07-13T14:57:19;99796.69;;;17.78
49154;BMP280;49455;52.252;9.124;2023-07-13T15:02:34;99795.00;;;18.17
49154;BMP280;49455;52.252;9.124;2023-07-13T15:07:34;99792.81;;;18.40
49154;BMP280;49455;52.252;9.124;2023-07-13T15:12:35;99795.47;;;18.67
49154;BMP280;49455;52.252;9.124;2023-07-13T15:17:46;99807.91;;;18.44
49154;BMP280;49455;52.252;9.124;2023-07-13T15:22:47;99820.34;;;18.64
49154;BMP280;49455;52.252;9.124;2023-07-13T15:27:48;99811.25;;;18.39
49154;BMP280;49455;52.252;9.124;2023-07-13T15:32:48;99811.09;;;18.34
49154;BMP280;49455;52.252;9.124;2023-07-13T15:37:49;99800.94;;;18.16
49154;BMP280;49455;52.252;9.124;2023-07-13T15:42:50;99798.69;;;17.87
49154;BMP280;49455;52.252;9.124;2023-07-13T15:47:51;99787.41;;;17.85
49154;BMP280;49455;52.252;9.124;2023-07-13T15:52:53;99788.78;;;17.89
49154;BMP280;49455;52.252;9.124;2023-07-13T15:57:54;99783.75;;;17.97
49154;BMP280;49455;52.252;9.124;2023-07-13T16:02:55;99780.09;;;17.81
49154;BMP280;49455;52.252;9.124;2023-07-13T16:07:55;99764.88;;;17.80
49154;BMP280;49455;52.252;9.124;2023-07-13T16:12:56;99772.19;;;17.74
49154;BMP280;49455;52.252;9.124;2023-07-13T16:17:57;99772.78;;;17.78
49154;BMP280;49455;52.252;9.124;2023-07-13T16:22:57;99787.72;;;17.87
49154;BMP280;49455;52.252;9.124;2023-07-13T16:27:58;99788.31;;;17.91
49154;BMP280;49455;52.252;9.124;2023-07-13T16:33:00;99783.59;;;17.82
49154;BMP280;49455;52.252;9.124;2023-07-13T16:38:18;99788.19;;;17.85
49154;BMP280;49455;52.252;9.124;2023-07-13T16:43:19;99788.63;;;17.65
49154;BMP280;49455;52.252;9.124;2023-07-13T16:48:22;99785.59;;;17.81
49154;BMP280;49455;52.252;9.124;2023-07-13T16:53:29;99788.47;;;17.87
49154;BMP280;49455;52.252;9.124;2023-07-13T16:58:30;99790.47;;;17.96
49154;BMP280;49455;52.252;9.124;2023-07-13T17:03:31;99787.84;;;18.20
49154;BMP280;49455;52.252;9.124;2023-07-13T17:08:32;99780.34;;;18.29
49154;BMP280;49455;52.252;9.124;2023-07-13T17:13:32;99783.88;;;18.21
49154;BMP280;49455;52.252;9.124;2023-07-13T17:18:33;99784.25;;;18.47
49154;BMP280;49455;52.252;9.124;2023-07-13T17:23:33;99775.91;;;18.32
49154;BMP280;49455;52.252;9.124;2023-07-13T17:28:34;99778.88;;;18.62
49154;BMP280;49455;52.252;9.124;2023-07-13T17:33:36;99785.75;;;18.90
49154;BMP280;49455;52.252;9.124;2023-07-13T17:38:39;99783.22;;;18.77
49154;BMP280;49455;52.252;9.124;2023-07-13T17:43:45;99773.78;;;19.02
49154;BMP280;49455;52.252;9.124;2023-07-13T17:48:45;99777.25;;;19.51
49154;BMP280;49455;52.252;9.124;2023-07-13T17:53:46;99772.44;;;19.61
49154;BMP280;49455;52.252;9.124;2023-07-13T17:58:47;99792.00;;;19.39
49154;BMP280;49455;52.252;9.124;2023-07-13T18:03:49;99781.63;;;18.95
49154;BMP280;49455;52.252;9.124;2023-07-13T18:08:53;99778.91;;;18.52
49154;BMP280;49455;52.252;9.124;2023-07-13T18:13:54;99778.22;;;18.24
49154;BMP280;49455;52.252;9.124;2023-07-13T18:18:59;99785.97;;;18.17
49154;BMP280;49455;52.252;9.124;2023-07-13T18:24:00;99795.94;;;18.05
49154;BMP280;49455;52.252;9.124;2023-07-13T18:29:01;99793.03;;;18.09
49154;BMP280;49455;52.252;9.124;2023-07-13T18:34:01;99796.53;;;18.00
49154;BMP280;49455;52.252;9.124;2023-07-13T18:39:02;99795.31;;;18.01
49154;BMP280;49455;52.252;9.124;2023-07-13T18:44:02;99798.19;;;17.97
49154;BMP280;49455;52.252;9.124;2023-07-13T18:49:03;99800.94;;;17.97
49154;BMP280;49455;52.252;9.124;2023-07-13T18:54:11;99801.88;;;17.85
49154;BMP280;49455;52.252;9.124;2023-07-13T18:59:12;99798.19;;;17.88
49154;BMP280;49455;52.252;9.124;2023-07-13T19:04:31;99811.63;;;17.77
49154;BMP280;49455;52.252;9.124;2023-07-13T19:09:32;99817.25;;;17.73
49154;BMP280;49455;52.252;9.124;2023-07-13T19:14:33;99815.88;;;17.78
49154;BMP280;49455;52.252;9.124;2023-07-13T19:19:33;99816.47;;;17.64
49154;BMP280;49455;52.252;9.124;2023-07-13T19:24:33;99815.53;;;17.57
49154;BMP280;49455;52.252;9.124;2023-07-13T19:29:34;99815.25;;;17.55
49154;BMP280;49455;52.252;9.124;2023-07-13T19:34:34;99823.31;;;17.59
49154;BMP280;49455;52.252;9.124;2023-07-13T19:39:38;99824.38;;;17.52
49154;BMP280;49455;52.252;9.124;2023-07-13T19:44:38;99825.44;;;17.46
49154;BMP280;49455;52.252;9.124;2023-07-13T19:49:39;99826.63;;;17.36
49154;BMP280;49455;52.252;9.124;2023-07-13T19:54:39;99831.00;;;17.24
49154;BMP280;49455;52.252;9.124;2023-07-13T19:59:40;99832.34;;;17.19
49154;BMP280;49455;52.252;9.124;2023-07-13T20:04:40;99839.50;;;17.17
49154;BMP280;49455;52.252;9.124;2023-07-13T20:09:41;99844.81;;;17.20
49154;BMP280;49455;52.252;9.124;2023-07-13T20:14:45;99839.50;;;17.17
49154;BMP280;49455;52.252;9.124;2023-07-13T20:19:46;99853.22;;;17.17
49154;BMP280;49455;52.252;9.124;2023-07-13T20:24:46;99855.44;;;17.09
49154;BMP280;49455;52.252;9.124;2023-07-13T20:29:46;99849.94;;;17.09
49154;BMP280;49455;52.252;9.124;2023-07-13T20:34:47;99847.03;;;16.94
49154;BMP280;49455;52.252;9.124;2023-07-13T20:39:48;99851.38;;;16.92
49154;BMP280;49455;52.252;9.124;2023-07-13T20:44:48;99860.25;;;16.96
49154;BMP280;49455;52.252;9.124;2023-07-13T20:49:49;99865.16;;;17.01
49154;BMP280;49455;52.252;9.124;2023-07-13T20:54:49;99861.00;;;16.96
49154;BMP280;49455;52.252;9.124;2023-07-13T20:59:53;99872.84;;;16.93
49154;BMP280;49455;52.252;9.124;2023-07-13T21:04:53;99880.00;;;16.91
49154;BMP280;49455;52.252;9.124;2023-07-13T21:09:54;99873.69;;;16.81
49154;BMP280;49455;52.252;9.124;2023-07-13T21:14:54;99877.75;;;16.76
49154;BMP280;49455;52.252;9.124;2023-07-13T21:19:54;99877.19;;;16.81
49154;BMP280;49455;52.252;9.124;2023-07-13T21:24:55;99879.75;;;16.76
49154;BMP280;49455;52.252;9.124;2023-07-13T21:29:55;99879.00;;;16.75
49154;BMP280;49455;52.252;9.124;2023-07-13T21:34:56;99885.16;;;16.67
49154;BMP280;49455;52.252;9.124;2023-07-13T21:39:56;99883.88;;;16.58
49154;BMP280;49455;52.252;9.124;2023-07-13T21:44:57;99891.72;;;16.47
49154;BMP280;49455;52.252;9.124;2023-07-13T21:49:57;99897.88;;;16.39
49154;BMP280;49455;52.252;9.124;2023-07-13T21:54:58;99897.16;;;16.25
49154;BMP280;49455;52.252;9.124;2023-07-13T21:59:59;99892.81;;;16.15
49154;BMP280;49455;52.252;9.124;2023-07-13T22:04:59;99887.91;;;16.10
49154;BMP280;49455;52.252;9.124;2023-07-13T22:09:59;99887.94;;;15.97
49154;BMP280;49455;52.252;9.124;2023-07-13T22:15:00;99889.72;;;15.91
49154;BMP280;49455;52.252;9.124;2023-07-13T22:20:01;99889.63;;;15.82
49154;BMP280;49455;52.252;9.124;2023-07-13T22:25:01;99895.44;;;15.71
49154;BMP280;49455;52.252;9.124;2023-07-13T22:30:02;99905.03;;;15.63
49154;BMP280;49455;52.252;9.124;2023-07-13T22:35:03;99903.31;;;15.56
49154;BMP280;49455;52.252;9.124;2023-07-13T22:40:09;99900.47;;;15.47
49154;BMP280;49455;52.252;9.124;2023-07-13T22:45:10;99899.16;;;15.39
49154;BMP280;49455;52.252;9.124;2023-07-13T22:50:15;99899.25;;;15.35
49154;BMP280;49455;52.252;9.124;2023-07-13T22:55:16;99891.31;;;15.28
49154;BMP280;49455;52.252;9.124;2023-07-13T23:00:17;99892.34;;;15.18
49154;BMP280;49455;52.252;9.124;2023-07-13T23:05:18;99880.03;;;15.13
49154;BMP280;49455;52.252;9.124;2023-07-13T23:10:19;99893.66;;;15.13
49154;BMP280;49455;52.252;9.124;2023-07-13T23:15:21;99892.84;;;15.17
49154;BMP280;49455;52.252;9.124;2023-07-13T23:20:34;99883.72;;;15.07
49154;BMP280;49455;52.252;9.124;2023-07-13T23:25:34;99894.13;;;14.99
49154;BMP280;49455;52.252;9.124;2023-07-13T23:30:36;99886.75;;;14.96
49154;BMP280;49455;52.252;9.124;2023-07-13T23:35:38;99890.38;;;14.93
49154;BMP280;49455;52.252;9.124;2023-07-13T23:40:38;99893.97;;;14.90
49154;BMP280;49455;52.252;9.124;2023-07-13T23:45:39;99882.63;;;14.92
49154;BMP280;49455;52.252;9.124;2023-07-13T23:50:42;99880.44;;;14.86
49154;BMP280;49455;52.252;9.124;2023-07-13T23:55:42;99885.66;;;14.81
